sensor_id;sensor_type;location;lat;lon;timestamp;P1;durP1;ratioP1;P2;durP2;ratioP2
55758;SDS011;41678;52.126;20.664;2023-01-19T00:05:30;45.13;;;19.58;;
55758;SDS011;41678;52.126;20.664;2023-01-19T00:10:50;43.53;;;18.75;;
55758;SDS011;41678;52.126;20.664;2023-01-19T00:16:09;54.25;;;20.15;;
55758;SDS011;41678;52.126;20.664;2023-01-19T00:21:29;40.53;;;19.38;;
55758;SDS011;41678;52.126;20.664;2023-01-19T00:26:48;42.17;;;19.63;;
55758;SDS011;41678;52.126;20.664;2023-01-19T00:32:08;44.72;;;18.23;;
55758;SDS011;41678;52.126;20.664;2023-01-19T00:37:27;48.22;;;20.30;;
55758;SDS011;41678;52.126;20.664;2023-01-19T00:42:47;55.58;;;23.13;;
55758;SDS011;41678;52.126;20.664;2023-01-19T00:48:07;51.15;;;20.60;;
55758;SDS011;41678;52.126;20.664;2023-01-19T00:53:26;49.53;;;18.95;;
55758;SDS011;41678;52.126;20.664;2023-01-19T00:58:50;51.47;;;22.02;;
55758;SDS011;41678;52.126;20.664;2023-01-19T01:04:09;41.65;;;17.33;;
55758;SDS011;41678;52.126;20.664;2023-01-19T01:09:31;58.83;;;19.88;;
55758;SDS011;41678;52.126;20.664;2023-01-19T01:14:51;48.63;;;19.20;;
55758;SDS011;41678;52.126;20.664;2023-01-19T01:20:14;55.72;;;19.83;;
55758;SDS011;41678;52.126;20.664;2023-01-19T01:25:36;51.42;;;18.85;;
55758;SDS011;41678;52.126;20.664;2023-01-19T01:30:56;56.08;;;20.75;;
55758;SDS011;41678;52.126;20.664;2023-01-19T01:36:16;56.10;;;21.42;;
55758;SDS011;41678;52.126;20.664;2023-01-19T01:41:37;59.60;;;20.83;;
55758;SDS011;41678;52.126;20.664;2023-01-19T01:46:56;57.00;;;20.40;;
55758;SDS011;41678;52.126;20.664;2023-01-19T01:52:16;59.78;;;20.90;;
55758;SDS011;41678;52.126;20.664;2023-01-19T01:57:37;42.15;;;18.73;;
55758;SDS011;41678;52.126;20.664;2023-01-19T02:03:00;50.67;;;19.05;;
55758;SDS011;41678;52.126;20.664;2023-01-19T02:08:39;45.10;;;19.88;;
55758;SDS011;41678;52.126;20.664;2023-01-19T02:14:22;46.92;;;20.15;;
55758;SDS011;41678;52.126;20.664;2023-01-19T02:19:42;47.13;;;21.92;;
55758;SDS011;41678;52.126;20.664;2023-01-19T02:25:03;48.80;;;22.35;;
55758;SDS011;41678;52.126;20.664;2023-01-19T02:30:23;50.53;;;20.60;;
55758;SDS011;41678;52.126;20.664;2023-01-19T02:35:42;43.28;;;19.35;;
55758;SDS011;41678;52.126;20.664;2023-01-19T02:41:05;56.08;;;22.25;;
55758;SDS011;41678;52.126;20.664;2023-01-19T02:46:27;52.83;;;20.05;;
55758;SDS011;41678;52.126;20.664;2023-01-19T02:51:47;55.22;;;21.27;;
55758;SDS011;41678;52.126;20.664;2023-01-19T03:10:15;53.78;;;22.25;;
55758;SDS011;41678;52.126;20.664;2023-01-19T03:15:43;48.92;;;21.02;;
55758;SDS011;41678;52.126;20.664;2023-01-19T03:21:08;49.30;;;21.73;;
55758;SDS011;41678;52.126;20.664;2023-01-19T03:26:30;56.25;;;23.65;;
55758;SDS011;41678;52.126;20.664;2023-01-19T03:31:57;58.70;;;23.60;;
55758;SDS011;41678;52.126;20.664;2023-01-19T03:37:21;65.35;;;24.10;;
55758;SDS011;41678;52.126;20.664;2023-01-19T03:42:42;48.90;;;20.57;;
55758;SDS011;41678;52.126;20.664;2023-01-19T03:48:03;61.03;;;24.70;;
55758;SDS011;41678;52.126;20.664;2023-01-19T03:53:24;51.75;;;22.42;;
55758;SDS011;41678;52.126;20.664;2023-01-19T03:58:43;47.65;;;20.08;;
55758;SDS011;41678;52.126;20.664;2023-01-19T04:04:04;56.63;;;21.60;;
55758;SDS011;41678;52.126;20.664;2023-01-19T04:09:23;49.25;;;20.52;;
55758;SDS011;41678;52.126;20.664;2023-01-19T04:14:43;60.13;;;22.23;;
55758;SDS011;41678;52.126;20.664;2023-01-19T04:20:03;59.97;;;21.02;;
55758;SDS011;41678;52.126;20.664;2023-01-19T04:25:24;44.92;;;19.65;;
55758;SDS011;41678;52.126;20.664;2023-01-19T04:30:43;41.08;;;18.77;;
55758;SDS011;41678;52.126;20.664;2023-01-19T04:36:03;54.13;;;19.95;;
55758;SDS011;41678;52.126;20.664;2023-01-19T04:41:23;55.42;;;21.90;;
55758;SDS011;41678;52.126;20.664;2023-01-19T04:46:42;55.88;;;19.15;;
55758;SDS011;41678;52.126;20.664;2023-01-19T04:52:02;49.78;;;19.75;;
55758;SDS011;41678;52.126;20.664;2023-01-19T04:57:22;45.50;;;19.70;;
55758;SDS011;41678;52.126;20.664;2023-01-19T05:02:42;42.72;;;17.40;;
55758;SDS011;41678;52.126;20.664;2023-01-19T05:08:03;49.40;;;19.00;;
55758;SDS011;41678;52.126;20.664;2023-01-19T05:13:24;47.38;;;18.20;;
55758;SDS011;41678;52.126;20.664;2023-01-19T05:18:43;47.83;;;18.38;;
55758;SDS011;41678;52.126;20.664;2023-01-19T05:24:03;52.85;;;17.90;;
55758;SDS011;41678;52.126;20.664;2023-01-19T05:29:23;35.50;;;14.98;;
55758;SDS011;41678;52.126;20.664;2023-01-19T05:34:42;44.00;;;17.40;;
55758;SDS011;41678;52.126;20.664;2023-01-19T05:40:02;46.92;;;18.10;;
55758;SDS011;41678;52.126;20.664;2023-01-19T05:45:22;39.28;;;15.75;;
55758;SDS011;41678;52.126;20.664;2023-01-19T05:50:41;35.05;;;15.77;;
55758;SDS011;41678;52.126;20.664;2023-01-19T05:56:05;53.78;;;17.45;;
55758;SDS011;41678;52.126;20.664;2023-01-19T06:01:28;43.88;;;16.20;;
55758;SDS011;41678;52.126;20.664;2023-01-19T06:06:48;41.50;;;16.48;;
55758;SDS011;41678;52.126;20.664;2023-01-19T06:12:08;42.05;;;17.95;;
55758;SDS011;41678;52.126;20.664;2023-01-19T06:17:30;40.78;;;15.52;;
55758;SDS011;41678;52.126;20.664;2023-01-19T06:22:50;39.80;;;15.77;;
55758;SDS011;41678;52.126;20.664;2023-01-19T06:28:09;40.40;;;14.65;;
55758;SDS011;41678;52.126;20.664;2023-01-19T06:33:29;38.28;;;15.95;;
55758;SDS011;41678;52.126;20.664;2023-01-19T06:38:49;40.92;;;16.38;;
55758;SDS011;41678;52.126;20.664;2023-01-19T06:44:09;33.90;;;13.93;;
55758;SDS011;41678;52.126;20.664;2023-01-19T06:49:28;41.33;;;17.25;;
55758;SDS011;41678;52.126;20.664;2023-01-19T06:54:48;42.17;;;17.45;;
55758;SDS011;41678;52.126;20.664;2023-01-19T07:00:08;42.78;;;16.70;;
55758;SDS011;41678;52.126;20.664;2023-01-19T07:05:28;40.28;;;16.13;;
55758;SDS011;41678;52.126;20.664;2023-01-19T07:10:48;40.17;;;17.77;;
55758;SDS011;41678;52.126;20.664;2023-01-19T07:16:09;42.22;;;17.00;;
55758;SDS011;41678;52.126;20.664;2023-01-19T07:26:49;33.80;;;14.93;;
55758;SDS011;41678;52.126;20.664;2023-01-19T07:32:09;50.38;;;16.35;;
55758;SDS011;41678;52.126;20.664;2023-01-19T07:37:28;33.67;;;14.65;;
55758;SDS011;41678;52.126;20.664;2023-01-19T07:48:17;34.25;;;14.50;;
55758;SDS011;41678;52.126;20.664;2023-01-19T07:53:36;36.63;;;14.93;;
55758;SDS011;41678;52.126;20.664;2023-01-19T07:58:56;42.33;;;15.50;;
55758;SDS011;41678;52.126;20.664;2023-01-19T08:04:15;40.53;;;16.10;;
55758;SDS011;41678;52.126;20.664;2023-01-19T08:09:37;41.72;;;17.08;;
55758;SDS011;41678;52.126;20.664;2023-01-19T08:14:56;33.47;;;15.75;;
55758;SDS011;41678;52.126;20.664;2023-01-19T08:20:17;38.10;;;16.42;;
55758;SDS011;41678;52.126;20.664;2023-01-19T08:25:38;30.98;;;13.13;;
55758;SDS011;41678;52.126;20.664;2023-01-19T08:31:02;38.53;;;14.40;;
55758;SDS011;41678;52.126;20.664;2023-01-19T08:36:22;47.75;;;18.40;;
55758;SDS011;41678;52.126;20.664;2023-01-19T08:41:43;48.00;;;19.63;;
55758;SDS011;41678;52.126;20.664;2023-01-19T08:47:02;45.40;;;18.08;;
55758;SDS011;41678;52.126;20.664;2023-01-19T08:52:22;40.97;;;17.90;;
55758;SDS011;41678;52.126;20.664;2023-01-19T08:57:44;44.53;;;18.25;;
55758;SDS011;41678;52.126;20.664;2023-01-19T09:03:04;46.20;;;18.52;;
55758;SDS011;41678;52.126;20.664;2023-01-19T09:08:26;41.30;;;16.80;;
55758;SDS011;41678;52.126;20.664;2023-01-19T09:13:45;53.60;;;17.92;;
55758;SDS011;41678;52.126;20.664;2023-01-19T09:19:05;57.80;;;20.83;;
55758;SDS011;41678;52.126;20.664;2023-01-19T09:24:26;47.50;;;19.23;;
55758;SDS011;41678;52.126;20.664;2023-01-19T09:29:46;43.20;;;17.67;;
55758;SDS011;41678;52.126;20.664;2023-01-19T09:35:11;55.90;;;20.08;;
55758;SDS011;41678;52.126;20.664;2023-01-19T09:40:30;47.28;;;20.00;;
55758;SDS011;41678;52.126;20.664;2023-01-19T09:45:51;41.30;;;17.58;;
55758;SDS011;41678;52.126;20.664;2023-01-19T09:56:42;47.78;;;19.67;;
55758;SDS011;41678;52.126;20.664;2023-01-19T10:02:25;53.47;;;22.88;;
55758;SDS011;41678;52.126;20.664;2023-01-19T10:18:46;47.42;;;18.17;;
55758;SDS011;41678;52.126;20.664;2023-01-19T10:29:38;39.00;;;17.05;;
55758;SDS011;41678;52.126;20.664;2023-01-19T10:34:58;34.30;;;15.85;;
55758;SDS011;41678;52.126;20.664;2023-01-19T10:40:23;42.65;;;17.15;;
55758;SDS011;41678;52.126;20.664;2023-01-19T10:45:48;42.20;;;17.50;;
55758;SDS011;41678;52.126;20.664;2023-01-19T10:51:09;79.00;;;24.10;;
55758;SDS011;41678;52.126;20.664;2023-01-19T10:56:30;100.75;;;35.47;;
55758;SDS011;41678;52.126;20.664;2023-01-19T11:02:11;45.70;;;19.35;;
55758;SDS011;41678;52.126;20.664;2023-01-19T11:12:59;29.50;;;13.52;;
55758;SDS011;41678;52.126;20.664;2023-01-19T11:18:37;32.10;;;13.65;;
55758;SDS011;41678;52.126;20.664;2023-01-19T11:23:59;31.85;;;13.93;;
55758;SDS011;41678;52.126;20.664;2023-01-19T11:34:46;45.97;;;18.05;;
55758;SDS011;41678;52.126;20.664;2023-01-19T11:40:07;33.30;;;13.52;;
55758;SDS011;41678;52.126;20.664;2023-01-19T11:45:27;73.75;;;25.30;;
55758;SDS011;41678;52.126;20.664;2023-01-19T11:50:46;58.40;;;21.15;;
55758;SDS011;41678;52.126;20.664;2023-01-19T11:56:10;30.77;;;14.07;;
55758;SDS011;41678;52.126;20.664;2023-01-19T12:01:33;35.15;;;12.93;;
55758;SDS011;41678;52.126;20.664;2023-01-19T12:06:59;33.97;;;14.10;;
55758;SDS011;41678;52.126;20.664;2023-01-19T12:12:27;37.45;;;15.02;;
55758;SDS011;41678;52.126;20.664;2023-01-19T12:17:50;28.52;;;13.18;;
55758;SDS011;41678;52.126;20.664;2023-01-19T12:28:50;31.58;;;15.73;;
55758;SDS011;41678;52.126;20.664;2023-01-19T12:34:27;30.83;;;12.75;;
55758;SDS011;41678;52.126;20.664;2023-01-19T12:39:49;32.58;;;13.88;;
55758;SDS011;41678;52.126;20.664;2023-01-19T12:45:16;31.60;;;14.07;;
55758;SDS011;41678;52.126;20.664;2023-01-19T12:50:39;27.73;;;13.65;;
55758;SDS011;41678;52.126;20.664;2023-01-19T12:56:05;35.35;;;15.70;;
55758;SDS011;41678;52.126;20.664;2023-01-19T13:01:28;34.10;;;14.30;;
55758;SDS011;41678;52.126;20.664;2023-01-19T13:17:32;34.80;;;13.60;;
55758;SDS011;41678;52.126;20.664;2023-01-19T13:23:16;33.83;;;13.75;;
55758;SDS011;41678;52.126;20.664;2023-01-19T13:28:45;31.17;;;14.10;;
55758;SDS011;41678;52.126;20.664;2023-01-19T13:34:12;35.40;;;16.00;;
55758;SDS011;41678;52.126;20.664;2023-01-19T13:39:35;38.55;;;15.82;;
55758;SDS011;41678;52.126;20.664;2023-01-19T13:44:59;50.47;;;18.95;;
55758;SDS011;41678;52.126;20.664;2023-01-19T13:50:42;47.53;;;19.05;;
55758;SDS011;41678;52.126;20.664;2023-01-19T13:56:18;41.38;;;17.38;;
55758;SDS011;41678;52.126;20.664;2023-01-19T14:01:43;46.35;;;17.77;;
55758;SDS011;41678;52.126;20.664;2023-01-19T14:07:05;39.63;;;18.77;;
55758;SDS011;41678;52.126;20.664;2023-01-19T14:12:42;57.92;;;22.48;;
55758;SDS011;41678;52.126;20.664;2023-01-19T14:18:24;62.60;;;24.52;;
55758;SDS011;41678;52.126;20.664;2023-01-19T14:23:48;46.03;;;18.50;;
55758;SDS011;41678;52.126;20.664;2023-01-19T14:29:27;52.97;;;20.05;;
55758;SDS011;41678;52.126;20.664;2023-01-19T14:40:22;42.55;;;18.15;;
55758;SDS011;41678;52.126;20.664;2023-01-19T14:45:42;40.40;;;16.40;;
55758;SDS011;41678;52.126;20.664;2023-01-19T14:51:05;45.28;;;18.33;;
55758;SDS011;41678;52.126;20.664;2023-01-19T14:56:26;51.45;;;18.42;;
55758;SDS011;41678;52.126;20.664;2023-01-19T15:01:47;44.60;;;18.33;;
55758;SDS011;41678;52.126;20.664;2023-01-19T15:07:17;49.22;;;19.05;;
55758;SDS011;41678;52.126;20.664;2023-01-19T15:12:37;52.00;;;18.65;;
55758;SDS011;41678;52.126;20.664;2023-01-19T15:17:58;46.85;;;17.55;;
55758;SDS011;41678;52.126;20.664;2023-01-19T15:23:20;48.22;;;18.50;;
55758;SDS011;41678;52.126;20.664;2023-01-19T15:28:40;52.28;;;19.52;;
55758;SDS011;41678;52.126;20.664;2023-01-19T15:33:59;55.58;;;19.52;;
55758;SDS011;41678;52.126;20.664;2023-01-19T15:39:20;52.00;;;19.95;;
55758;SDS011;41678;52.126;20.664;2023-01-19T15:44:39;49.88;;;20.80;;
55758;SDS011;41678;52.126;20.664;2023-01-19T15:49:59;45.28;;;20.08;;
55758;SDS011;41678;52.126;20.664;2023-01-19T15:55:20;48.97;;;19.65;;
55758;SDS011;41678;52.126;20.664;2023-01-19T16:00:41;55.87;;;20.50;;
55758;SDS011;41678;52.126;20.664;2023-01-19T16:06:02;59.28;;;21.73;;
55758;SDS011;41678;52.126;20.664;2023-01-19T16:16:51;49.08;;;21.02;;
55758;SDS011;41678;52.126;20.664;2023-01-19T16:22:10;58.13;;;22.23;;
55758;SDS011;41678;52.126;20.664;2023-01-19T16:27:30;56.78;;;21.65;;
55758;SDS011;41678;52.126;20.664;2023-01-19T16:32:50;72.75;;;24.85;;
55758;SDS011;41678;52.126;20.664;2023-01-19T16:38:09;62.28;;;22.45;;
55758;SDS011;41678;52.126;20.664;2023-01-19T16:43:29;65.30;;;22.38;;
55758;SDS011;41678;52.126;20.664;2023-01-19T16:48:49;55.15;;;20.83;;
55758;SDS011;41678;52.126;20.664;2023-01-19T16:54:17;45.28;;;19.85;;
55758;SDS011;41678;52.126;20.664;2023-01-19T16:59:40;57.58;;;23.30;;
55758;SDS011;41678;52.126;20.664;2023-01-19T17:05:02;64.78;;;23.40;;
55758;SDS011;41678;52.126;20.664;2023-01-19T17:10:22;48.20;;;20.25;;
55758;SDS011;41678;52.126;20.664;2023-01-19T17:15:42;52.92;;;21.75;;
55758;SDS011;41678;52.126;20.664;2023-01-19T17:21:02;45.08;;;20.10;;
55758;SDS011;41678;52.126;20.664;2023-01-19T17:31:48;53.10;;;20.73;;
55758;SDS011;41678;52.126;20.664;2023-01-19T17:37:08;46.00;;;19.15;;
55758;SDS011;41678;52.126;20.664;2023-01-19T17:42:28;47.33;;;17.08;;
55758;SDS011;41678;52.126;20.664;2023-01-19T17:47:48;45.30;;;20.23;;
55758;SDS011;41678;52.126;20.664;2023-01-19T17:53:08;48.50;;;19.67;;
55758;SDS011;41678;52.126;20.664;2023-01-19T17:58:29;48.42;;;20.58;;
55758;SDS011;41678;52.126;20.664;2023-01-19T18:09:18;44.17;;;19.70;;
55758;SDS011;41678;52.126;20.664;2023-01-19T18:14:38;46.97;;;19.50;;
55758;SDS011;41678;52.126;20.664;2023-01-19T18:19:58;50.58;;;20.45;;
55758;SDS011;41678;52.126;20.664;2023-01-19T18:25:18;44.63;;;19.48;;
55758;SDS011;41678;52.126;20.664;2023-01-19T18:30:44;46.10;;;20.98;;
55758;SDS011;41678;52.126;20.664;2023-01-19T18:36:04;58.15;;;22.83;;
55758;SDS011;41678;52.126;20.664;2023-01-19T18:41:24;48.95;;;21.10;;
55758;SDS011;41678;52.126;20.664;2023-01-19T18:46:43;45.90;;;20.27;;
55758;SDS011;41678;52.126;20.664;2023-01-19T18:52:03;50.95;;;20.33;;
55758;SDS011;41678;52.126;20.664;2023-01-19T18:57:23;47.22;;;20.00;;
55758;SDS011;41678;52.126;20.664;2023-01-19T19:02:43;46.28;;;20.40;;
55758;SDS011;41678;52.126;20.664;2023-01-19T19:08:03;40.65;;;15.82;;
55758;SDS011;41678;52.126;20.664;2023-01-19T19:13:23;45.80;;;20.40;;
55758;SDS011;41678;52.126;20.664;2023-01-19T19:18:43;49.90;;;19.45;;
55758;SDS011;41678;52.126;20.664;2023-01-19T19:24:02;41.60;;;16.42;;
55758;SDS011;41678;52.126;20.664;2023-01-19T19:29:22;52.30;;;20.08;;
55758;SDS011;41678;52.126;20.664;2023-01-19T19:34:41;60.03;;;22.15;;
55758;SDS011;41678;52.126;20.664;2023-01-19T19:40:01;49.95;;;20.48;;
55758;SDS011;41678;52.126;20.664;2023-01-19T19:45:20;56.50;;;20.10;;
55758;SDS011;41678;52.126;20.664;2023-01-19T19:50:40;50.10;;;21.50;;
55758;SDS011;41678;52.126;20.664;2023-01-19T19:55:59;45.20;;;19.50;;
55758;SDS011;41678;52.126;20.664;2023-01-19T20:01:21;49.83;;;19.42;;
55758;SDS011;41678;52.126;20.664;2023-01-19T20:06:43;40.17;;;19.05;;
55758;SDS011;41678;52.126;20.664;2023-01-19T20:17:57;58.53;;;19.10;;
55758;SDS011;41678;52.126;20.664;2023-01-19T20:23:16;45.40;;;20.67;;
55758;SDS011;41678;52.126;20.664;2023-01-19T20:28:36;48.88;;;19.77;;
55758;SDS011;41678;52.126;20.664;2023-01-19T20:33:57;60.97;;;19.98;;
55758;SDS011;41678;52.126;20.664;2023-01-19T20:39:19;48.15;;;18.67;;
55758;SDS011;41678;52.126;20.664;2023-01-19T20:44:39;72.70;;;17.43;;
55758;SDS011;41678;52.126;20.664;2023-01-19T20:49:59;46.80;;;18.90;;
55758;SDS011;41678;52.126;20.664;2023-01-19T20:55:18;55.97;;;18.75;;
55758;SDS011;41678;52.126;20.664;2023-01-19T21:00:38;59.25;;;19.17;;
55758;SDS011;41678;52.126;20.664;2023-01-19T21:05:58;46.63;;;17.63;;
55758;SDS011;41678;52.126;20.664;2023-01-19T21:11:18;56.63;;;20.63;;
55758;SDS011;41678;52.126;20.664;2023-01-19T21:16:39;48.83;;;17.85;;
55758;SDS011;41678;52.126;20.664;2023-01-19T21:22:00;46.53;;;18.95;;
55758;SDS011;41678;52.126;20.664;2023-01-19T21:27:20;52.42;;;19.60;;
55758;SDS011;41678;52.126;20.664;2023-01-19T21:32:39;41.53;;;14.32;;
55758;SDS011;41678;52.126;20.664;2023-01-19T21:37:59;52.25;;;17.83;;
55758;SDS011;41678;52.126;20.664;2023-01-19T21:43:19;59.78;;;19.75;;
55758;SDS011;41678;52.126;20.664;2023-01-19T21:48:39;64.68;;;18.92;;
55758;SDS011;41678;52.126;20.664;2023-01-19T21:54:03;43.60;;;18.70;;
55758;SDS011;41678;52.126;20.664;2023-01-19T21:59:24;51.45;;;18.88;;
55758;SDS011;41678;52.126;20.664;2023-01-19T22:04:43;55.40;;;18.38;;
55758;SDS011;41678;52.126;20.664;2023-01-19T22:10:03;58.40;;;18.45;;
55758;SDS011;41678;52.126;20.664;2023-01-19T22:15:23;53.85;;;18.75;;
55758;SDS011;41678;52.126;20.664;2023-01-19T22:20:43;58.92;;;19.65;;
55758;SDS011;41678;52.126;20.664;2023-01-19T22:26:02;51.55;;;18.50;;
55758;SDS011;41678;52.126;20.664;2023-01-19T22:31:23;56.55;;;18.92;;
55758;SDS011;41678;52.126;20.664;2023-01-19T22:36:44;56.20;;;20.65;;
55758;SDS011;41678;52.126;20.664;2023-01-19T22:42:04;63.78;;;19.92;;
55758;SDS011;41678;52.126;20.664;2023-01-19T22:47:23;66.50;;;19.17;;
55758;SDS011;41678;52.126;20.664;2023-01-19T22:52:42;61.40;;;21.27;;
55758;SDS011;41678;52.126;20.664;2023-01-19T22:58:02;66.18;;;22.42;;
55758;SDS011;41678;52.126;20.664;2023-01-19T23:03:21;57.33;;;20.23;;
55758;SDS011;41678;52.126;20.664;2023-01-19T23:08:41;62.53;;;20.38;;
55758;SDS011;41678;52.126;20.664;2023-01-19T23:14:01;58.45;;;17.77;;
55758;SDS011;41678;52.126;20.664;2023-01-19T23:19:22;56.05;;;23.42;;
55758;SDS011;41678;52.126;20.664;2023-01-19T23:24:41;60.50;;;21.08;;
55758;SDS011;41678;52.126;20.664;2023-01-19T23:30:00;58.95;;;20.13;;
55758;SDS011;41678;52.126;20.664;2023-01-19T23:35:20;58.50;;;20.55;;
55758;SDS011;41678;52.126;20.664;2023-01-19T23:40:39;53.28;;;18.77;;
55758;SDS011;41678;52.126;20.664;2023-01-19T23:46:02;58.63;;;20.42;;
55758;SDS011;41678;52.126;20.664;2023-01-19T23:51:25;58.88;;;20.77;;
55758;SDS011;41678;52.126;20.664;2023-01-19T23:56:46;51.33;;;17.15;;
